This is the latest recevied weather packets stored in our database for station/object K1NOT-WX. If no packets are shown the sender has not sent any weather packets the latest 10 day(s).
| Time | Temp. | Humidity | Pressure | Rain* | Wind** | Luminosity | Snow |
|---|---|---|---|---|---|---|---|
| 1777913832 | 23.89° C | 41% | 1002.4 hPa | 0 mm | - | - | - |
| 1777912932 | 22.78° C | 46% | 1002 hPa | 0 mm | - | - | - |
| 1777912032 | 21.67° C | 50% | 1002 hPa | 0 mm | - | - | - |
| 1777911132 | 21.11° C | 51% | 1002.4 hPa | 0 mm | - | - | - |
| 1777910233 | 21.11° C | 50% | 1002 hPa | 0 mm | - | - | - |
| 1777909333 | 21.67° C | 52% | 1002 hPa | 0 mm | - | - | - |
| 1777908433 | 20° C | 58% | 1002 hPa | 0 mm | - | - | - |
| 1777907533 | 19.44° C | 60% | 1002 hPa | 0 mm | - | - | - |
| 1777906633 | 19.44° C | 62% | 1001.7 hPa | 0 mm | - | - | - |
| 1777905733 | 18.89° C | 62% | 1001.7 hPa | 0 mm | - | - | - |
| 1777904833 | 18.89° C | 60% | 1001.7 hPa | 0 mm | - | - | - |
| 1777903933 | 15° C | 73% | 1001.4 hPa | 0 mm | - | - | - |
| 1777903033 | 13.33° C | 78% | 1001.4 hPa | 0 mm | - | - | - |
| 1777902133 | 12.78° C | 77% | 1001.4 hPa | 0 mm | - | - | - |
| 1777901233 | 12.22° C | 78% | 1001 hPa | 0 mm | - | - | - |
| 1777900333 | 11.67° C | 79% | 1001 hPa | 0 mm | - | - | - |
| 1777899433 | 12.22° C | 78% | 1000.7 hPa | 0 mm | - | - | - |
| 1777898533 | 12.22° C | 78% | 1000.7 hPa | 0 mm | - | - | - |
| 1777897633 | 12.22° C | 76% | 1000.7 hPa | 0 mm | - | - | - |
| 1777896733 | 12.22° C | 77% | 1000.7 hPa | 0 mm | - | - | - |
| 1777895833 | 12.22° C | 77% | 1001 hPa | 0 mm | - | - | - |
| 1777894933 | 12.78° C | 74% | 1001 hPa | 0 mm | - | - | - |
| 1777894033 | 13.33° C | 71% | 1000.7 hPa | 0 mm | - | - | - |
| 1777893133 | 13.33° C | 69% | 1000.7 hPa | 0 mm | - | - | - |
| 1777892233 | 13.89° C | 69% | 1001 hPa | 0 mm | - | - | - |
* Rain latest hour (hover to see other rain measurements)
** Current wind speed in m/s (hover to see current wind gust speed)